Terminal Aerodrome Forecast
Issued by NWS Cleveland, OH

Home | Current Version | Previous Version | Graphics & Text | Print | Product List | Glossary On
Versions: 1 2 3 4 5 6 7 8 9 10 11 12 13 14 15 16 17 18
000
FTUS41 KCLE 272215 AAA
TAFYNG
TAF AMD
KYNG 272215Z 2722/2818 14010KT P6SM VCSH SCT008 OVC020
     FM272300 18012KT P6SM SCT005 OVC012
     FM280600 18012KT 3SM -SHRA BR OVC005
     FM281400 30012KT 4SM BR VCSH BKN006 OVC012=

USA.gov is the U.S. government's official web portal to all federal, state and local government web resources and services.